createdAt,value
2019-03-30T00:00:57.478Z,10.40
2019-03-30T00:03:27.324Z,10.40
2019-03-30T00:05:57.124Z,10.40
2019-03-30T00:08:27.031Z,10.30
2019-03-30T00:10:56.823Z,10.30
2019-03-30T00:13:26.666Z,10.20
2019-03-30T00:15:56.555Z,10.20
2019-03-30T00:18:26.431Z,10.10
2019-03-30T00:20:56.229Z,10.10
2019-03-30T00:23:26.087Z,10.10
2019-03-30T00:25:55.979Z,10.00
2019-03-30T00:28:25.911Z,10.00
2019-03-30T00:30:55.715Z,9.90
2019-03-30T00:33:25.632Z,9.90
2019-03-30T00:35:55.503Z,9.80
2019-03-30T00:38:25.358Z,9.80
2019-03-30T00:40:55.206Z,9.80
2019-03-30T00:43:25.094Z,9.80
2019-03-30T00:45:54.902Z,9.70
2019-03-30T00:48:24.751Z,9.70
2019-03-30T00:50:54.555Z,9.60
2019-03-30T00:53:24.770Z,9.60
2019-03-30T00:55:54.618Z,9.60
2019-03-30T00:58:25.689Z,9.50
2019-03-30T01:00:55.721Z,9.50
2019-03-30T01:03:25.625Z,9.40
2019-03-30T01:05:58.193Z,9.40
2019-03-30T01:08:27.005Z,9.30
2019-03-30T01:10:56.933Z,9.30
2019-03-30T01:13:26.841Z,9.30
2019-03-30T01:15:56.649Z,9.20
2019-03-30T01:18:26.489Z,9.10
2019-03-30T01:20:56.311Z,9.10
2019-03-30T01:23:26.416Z,9.00
2019-03-30T01:25:56.280Z,9.00
2019-03-30T01:28:26.193Z,8.90
2019-03-30T01:30:56.121Z,8.90
2019-03-30T01:33:26.062Z,8.90
2019-03-30T01:35:55.860Z,8.80
2019-03-30T01:38:25.652Z,8.70
2019-03-30T01:40:55.576Z,8.70
2019-03-30T01:43:25.432Z,8.60
2019-03-30T01:45:55.203Z,8.60
2019-03-30T01:48:25.044Z,8.60
2019-03-30T01:50:54.972Z,8.60
2019-03-30T01:53:24.884Z,8.70
2019-03-30T01:55:54.744Z,8.80
2019-03-30T01:58:24.560Z,8.70
2019-03-30T02:00:54.372Z,8.70
2019-03-30T02:03:24.247Z,8.80
2019-03-30T02:05:54.140Z,8.70
2019-03-30T02:08:23.996Z,8.60
2019-03-30T02:10:53.820Z,8.60
2019-03-30T02:13:23.695Z,8.60
2019-03-30T02:15:53.544Z,8.50
2019-03-30T02:18:23.447Z,8.40
2019-03-30T02:20:53.256Z,8.40
2019-03-30T02:23:23.184Z,8.40
2019-03-30T02:25:53.043Z,8.40
2019-03-30T02:28:22.955Z,8.40
2019-03-30T02:30:52.881Z,8.40
2019-03-30T02:33:23.073Z,8.40
2019-03-30T02:35:52.969Z,8.40
2019-03-30T02:38:22.786Z,8.40
2019-03-30T02:40:52.615Z,8.40
2019-03-30T02:43:22.627Z,8.50
2019-03-30T02:45:52.447Z,8.50
2019-03-30T02:48:22.296Z,8.50
2019-03-30T02:50:52.080Z,8.50
2019-03-30T02:53:21.973Z,8.50
2019-03-30T02:55:51.787Z,8.50
2019-03-30T02:58:21.623Z,8.40
2019-03-30T03:00:51.487Z,8.40
2019-03-30T03:03:21.271Z,8.30
2019-03-30T03:05:51.187Z,8.20
2019-03-30T03:08:20.974Z,8.20
2019-03-30T03:10:50.795Z,8.20
2019-03-30T03:13:20.587Z,8.20
2019-03-30T03:15:50.540Z,8.10
2019-03-30T03:18:20.353Z,8.10
2019-03-30T03:21:06.793Z,8.10
2019-03-30T03:23:22.009Z,8.10
2019-03-30T03:25:51.887Z,8.10
2019-03-30T03:28:21.736Z,8.10
2019-03-30T03:30:51.635Z,8.20
2019-03-30T03:33:21.503Z,8.20
2019-03-30T03:35:51.322Z,8.30
2019-03-30T03:38:21.098Z,8.30
2019-03-30T03:40:50.975Z,8.30
2019-03-30T03:43:20.938Z,8.30
2019-03-30T03:45:50.907Z,8.40
2019-03-30T03:48:20.679Z,8.40
2019-03-30T03:50:57.469Z,8.50
2019-03-30T03:53:27.304Z,8.60
2019-03-30T03:55:58.488Z,8.70
2019-03-30T03:58:31.467Z,8.70
2019-03-30T04:01:02.911Z,8.80
2019-03-30T04:03:34.639Z,8.80
2019-03-30T04:06:07.874Z,8.90
2019-03-30T04:08:38.838Z,9.00
2019-03-30T04:11:10.409Z,9.00
2019-03-30T04:13:42.355Z,9.10
2019-03-30T04:16:12.225Z,9.10
2019-03-30T04:18:42.106Z,9.20
2019-03-30T04:21:11.949Z,9.20
2019-03-30T04:23:41.850Z,9.20
2019-03-30T04:26:11.618Z,9.30
2019-03-30T04:28:41.462Z,9.30
2019-03-30T04:31:11.310Z,9.30
2019-03-30T04:33:41.151Z,9.30
2019-03-30T04:36:10.945Z,9.40
2019-03-30T04:38:40.794Z,9.40
2019-03-30T04:41:11.565Z,9.40
2019-03-30T04:43:41.397Z,9.40
2019-03-30T04:46:11.233Z,9.50
2019-03-30T04:48:41.057Z,9.50
2019-03-30T04:51:10.860Z,9.50
2019-03-30T04:53:40.792Z,9.50
2019-03-30T04:56:10.665Z,9.50
2019-03-30T04:58:40.549Z,9.50
2019-03-30T05:01:10.386Z,9.60
2019-03-30T05:03:40.248Z,9.50
2019-03-30T05:06:10.177Z,9.60
2019-03-30T05:08:40.044Z,9.60
2019-03-30T05:11:09.908Z,9.50
2019-03-30T05:13:39.685Z,9.60
2019-03-30T05:16:09.510Z,9.50
2019-03-30T05:18:39.377Z,9.50
2019-03-30T05:21:09.248Z,9.50
2019-03-30T05:23:39.038Z,9.50
2019-03-30T05:26:08.897Z,9.50
2019-03-30T05:28:38.744Z,9.40
2019-03-30T05:31:08.652Z,9.40
2019-03-30T05:33:38.465Z,9.30
2019-03-30T05:36:08.248Z,9.30
2019-03-30T05:38:38.093Z,9.30
2019-03-30T05:41:07.892Z,9.20
2019-03-30T05:43:37.868Z,9.20
2019-03-30T05:46:07.717Z,9.20
2019-03-30T05:48:37.523Z,9.20
2019-03-30T05:51:07.352Z,9.20
2019-03-30T05:53:37.172Z,9.20
2019-03-30T05:56:07.100Z,9.20
2019-03-30T05:58:36.893Z,9.20
2019-03-30T06:01:06.772Z,9.30
2019-03-30T06:03:36.604Z,9.20
2019-03-30T06:06:06.468Z,9.30
2019-03-30T06:08:36.355Z,9.30
2019-03-30T06:11:06.474Z,9.30
2019-03-30T06:13:36.383Z,9.30
2019-03-30T06:16:06.191Z,9.40
2019-03-30T06:18:36.101Z,9.40
2019-03-30T06:21:05.912Z,9.40
2019-03-30T06:23:35.727Z,9.40
2019-03-30T06:26:05.552Z,9.40
2019-03-30T06:28:35.407Z,9.40
2019-03-30T06:31:05.279Z,9.50
2019-03-30T06:33:35.059Z,9.50
2019-03-30T06:36:04.906Z,9.50
2019-03-30T06:38:34.795Z,9.50
2019-03-30T06:41:04.711Z,9.60
2019-03-30T06:43:34.563Z,9.60
2019-03-30T06:46:04.507Z,9.60
2019-03-30T06:48:36.122Z,9.70
2019-03-30T06:51:05.819Z,9.70
2019-03-30T06:53:35.619Z,9.70
2019-03-30T06:56:05.446Z,9.70
2019-03-30T06:58:35.279Z,9.80
2019-03-30T07:01:05.310Z,9.80
2019-03-30T07:03:35.289Z,9.80
2019-03-30T07:06:05.163Z,9.90
2019-03-30T07:08:35.510Z,9.90
2019-03-30T07:11:05.374Z,9.90
2019-03-30T07:13:39.303Z,9.90
2019-03-30T07:16:09.123Z,10.00
2019-03-30T07:18:40.178Z,10.00
2019-03-30T07:21:10.028Z,10.10
2019-03-30T07:23:39.869Z,10.10
2019-03-30T07:26:09.776Z,10.20
2019-03-30T07:28:40.138Z,10.20
2019-03-30T07:31:09.962Z,10.30
2019-03-30T07:33:39.916Z,10.30
2019-03-30T07:36:09.782Z,10.40
2019-03-30T07:38:39.610Z,10.40
2019-03-30T07:41:09.418Z,10.50
2019-03-30T07:43:39.318Z,10.50
2019-03-30T07:46:09.182Z,10.60
2019-03-30T07:48:39.077Z,10.60
2019-03-30T07:51:09.042Z,10.70
2019-03-30T07:53:44.711Z,10.70
2019-03-30T07:56:10.526Z,10.70
2019-03-30T07:58:40.489Z,10.80
2019-03-30T08:01:10.409Z,10.90
2019-03-30T08:03:40.273Z,11.00
2019-03-30T08:06:10.226Z,11.00
2019-03-30T08:08:40.067Z,11.10
2019-03-30T08:11:09.920Z,11.10
2019-03-30T08:13:39.749Z,11.20
2019-03-30T08:16:09.545Z,11.20
2019-03-30T08:18:39.389Z,11.20
2019-03-30T08:21:09.157Z,11.30
2019-03-30T08:23:40.466Z,11.30
2019-03-30T08:26:10.792Z,11.40
2019-03-30T08:28:40.759Z,11.40
2019-03-30T08:31:10.929Z,11.40
2019-03-30T08:33:40.737Z,11.50
2019-03-30T08:36:10.573Z,11.50
2019-03-30T08:38:40.425Z,11.50
2019-03-30T08:41:10.292Z,11.50
2019-03-30T08:43:40.136Z,11.50
2019-03-30T08:46:10.029Z,11.60
2019-03-30T08:48:39.879Z,11.60
2019-03-30T08:51:09.721Z,11.70
2019-03-30T08:53:53.579Z,11.80
2019-03-30T08:56:11.139Z,11.90
2019-03-30T08:58:40.993Z,11.90
2019-03-30T09:01:10.933Z,12.10
2019-03-30T09:03:40.810Z,12.20
2019-03-30T09:06:10.649Z,12.20
2019-03-30T09:08:40.465Z,12.30
2019-03-30T09:11:10.326Z,12.40
2019-03-30T09:13:40.182Z,12.40
2019-03-30T09:16:09.929Z,12.50
2019-03-30T09:18:39.869Z,12.50
2019-03-30T09:21:09.772Z,12.50
2019-03-30T09:23:39.649Z,12.60
2019-03-30T09:26:09.617Z,12.70
2019-03-30T09:28:39.466Z,12.70
2019-03-30T09:31:09.306Z,12.80
2019-03-30T09:33:39.132Z,12.80
2019-03-30T09:36:09.024Z,12.80
2019-03-30T09:38:38.865Z,12.80
2019-03-30T09:41:08.791Z,12.90
2019-03-30T09:43:38.685Z,13.00
2019-03-30T09:46:08.708Z,13.10
2019-03-30T09:48:38.636Z,13.10
2019-03-30T09:51:08.436Z,13.20
2019-03-30T09:53:38.257Z,13.20
2019-03-30T09:56:08.112Z,13.20
2019-03-30T09:58:37.988Z,13.30
2019-03-30T10:01:07.856Z,13.40
2019-03-30T10:03:37.648Z,13.50
2019-03-30T10:06:07.576Z,13.60
2019-03-30T10:08:37.512Z,13.60
2019-03-30T10:11:07.312Z,13.70
2019-03-30T10:13:37.147Z,13.70
2019-03-30T10:16:07.283Z,13.70
2019-03-30T10:18:39.055Z,13.70
2019-03-30T10:21:08.884Z,13.80
2019-03-30T10:23:38.774Z,13.80
2019-03-30T10:26:08.631Z,13.90
2019-03-30T10:28:38.427Z,13.90
2019-03-30T10:31:08.271Z,14.00
2019-03-30T10:33:38.455Z,14.00
2019-03-30T10:36:08.311Z,14.10
2019-03-30T10:38:38.199Z,14.20
2019-03-30T10:41:08.053Z,14.30
2019-03-30T10:43:37.960Z,14.40
2019-03-30T10:46:07.771Z,14.60
2019-03-30T10:48:37.695Z,14.70
2019-03-30T10:51:07.551Z,14.70
2019-03-30T10:53:37.321Z,14.70
2019-03-30T10:56:07.315Z,14.80
2019-03-30T10:58:37.545Z,14.80
2019-03-30T11:01:07.354Z,15.00
2019-03-30T11:03:37.119Z,15.20
2019-03-30T11:06:07.010Z,15.50
2019-03-30T11:08:36.879Z,15.90
2019-03-30T11:11:06.840Z,16.30
2019-03-30T11:13:36.730Z,16.50
2019-03-30T11:16:07.550Z,16.70
2019-03-30T11:18:37.403Z,16.90
2019-03-30T11:21:07.211Z,17.00
2019-03-30T11:23:37.121Z,16.90
2019-03-30T11:26:07.023Z,17.00
2019-03-30T11:28:36.846Z,17.20
2019-03-30T11:31:06.650Z,17.50
2019-03-30T11:33:36.470Z,17.70
2019-03-30T11:36:06.615Z,17.90
2019-03-30T11:38:36.634Z,18.00
2019-03-30T11:41:06.757Z,18.00
2019-03-30T11:43:36.561Z,18.10
2019-03-30T11:46:06.490Z,18.20
2019-03-30T11:48:37.584Z,18.40
2019-03-30T11:51:07.720Z,18.50
2019-03-30T11:53:37.588Z,18.60
2019-03-30T11:56:07.531Z,18.70
2019-03-30T11:58:37.349Z,18.90
2019-03-30T12:01:07.276Z,19.00
2019-03-30T12:03:37.103Z,19.20
2019-03-30T12:06:06.975Z,19.30
2019-03-30T12:08:36.788Z,19.50
2019-03-30T12:11:06.637Z,19.60
2019-03-30T12:13:36.427Z,19.70
2019-03-30T12:16:06.268Z,19.70
2019-03-30T12:18:36.053Z,19.70
2019-03-30T12:21:05.909Z,19.90
2019-03-30T12:23:35.760Z,20.10
2019-03-30T12:26:05.720Z,20.20
2019-03-30T12:28:35.519Z,20.30
2019-03-30T12:31:05.349Z,20.40
2019-03-30T12:33:35.211Z,20.50
2019-03-30T12:36:05.160Z,20.60
2019-03-30T12:38:35.051Z,20.70
2019-03-30T12:41:04.983Z,20.80
2019-03-30T12:43:35.229Z,20.90
2019-03-30T12:46:05.071Z,21.00
2019-03-30T12:48:35.002Z,21.00
2019-03-30T12:51:04.896Z,21.10
2019-03-30T12:53:34.787Z,21.00
2019-03-30T12:56:04.706Z,21.00
2019-03-30T12:58:34.516Z,21.00
2019-03-30T13:01:04.322Z,21.00
2019-03-30T13:03:34.155Z,21.00
2019-03-30T13:06:03.974Z,20.90
2019-03-30T13:08:33.851Z,20.90
2019-03-30T13:11:03.639Z,20.90
2019-03-30T13:13:33.479Z,20.80
2019-03-30T13:16:03.284Z,20.90
2019-03-30T13:18:33.123Z,21.10
2019-03-30T13:21:02.915Z,21.40
2019-03-30T13:23:32.719Z,21.60
2019-03-30T13:26:04.167Z,21.70
2019-03-30T13:28:34.128Z,21.90
2019-03-30T13:31:03.984Z,22.00
2019-03-30T13:36:02.928Z,22.30
2019-03-30T13:38:32.780Z,22.40
2019-03-30T13:41:02.621Z,22.50
2019-03-30T13:43:32.502Z,22.40
2019-03-30T13:46:02.444Z,22.30
2019-03-30T13:48:32.488Z,22.20
2019-03-30T13:51:02.420Z,22.10
2019-03-30T13:53:32.240Z,22.10
2019-03-30T13:56:02.184Z,22.20
2019-03-30T13:58:32.064Z,22.40
2019-03-30T14:01:01.902Z,22.60
2019-03-30T14:03:31.753Z,22.60
2019-03-30T14:06:01.631Z,22.60
2019-03-30T14:08:31.473Z,22.60
2019-03-30T14:11:01.267Z,22.70
2019-03-30T14:13:31.296Z,22.70
2019-03-30T14:16:01.627Z,22.60
2019-03-30T14:18:31.554Z,22.60
2019-03-30T14:21:01.487Z,22.70
2019-03-30T14:23:31.283Z,22.70
2019-03-30T14:26:01.145Z,22.70
2019-03-30T14:28:31.035Z,22.60
2019-03-30T14:31:00.871Z,22.50
2019-03-30T14:33:30.704Z,22.50
2019-03-30T14:36:00.519Z,22.60
2019-03-30T14:38:30.388Z,22.70
2019-03-30T14:41:03.772Z,22.70
2019-03-30T14:43:32.859Z,22.80
2019-03-30T14:46:02.731Z,22.80
2019-03-30T14:48:32.667Z,22.90
2019-03-30T14:51:02.500Z,22.80
2019-03-30T14:53:32.450Z,22.80
2019-03-30T14:56:02.277Z,22.80
2019-03-30T14:58:32.178Z,22.80
2019-03-30T15:01:03.312Z,22.80
2019-03-30T15:03:33.206Z,22.70
2019-03-30T15:06:03.102Z,22.50
2019-03-30T15:08:32.939Z,22.40
2019-03-30T15:11:02.859Z,22.30
2019-03-30T15:13:32.724Z,22.20
2019-03-30T15:16:02.574Z,22.20
2019-03-30T15:18:32.386Z,22.20
2019-03-30T15:21:02.266Z,22.20
2019-03-30T15:23:32.080Z,22.20
2019-03-30T15:26:02.056Z,22.10
2019-03-30T15:28:31.880Z,22.10
2019-03-30T15:31:01.727Z,22.10
2019-03-30T15:33:31.586Z,22.00
2019-03-30T15:36:01.670Z,21.90
2019-03-30T15:38:31.527Z,21.80
2019-03-30T15:41:01.494Z,21.80
2019-03-30T15:43:38.300Z,21.80
2019-03-30T15:46:03.035Z,21.80
2019-03-30T15:48:33.282Z,21.80
2019-03-30T15:51:03.146Z,21.80
2019-03-30T15:53:33.111Z,21.70
2019-03-30T15:56:03.097Z,21.50
2019-03-30T15:58:32.918Z,21.20
2019-03-30T16:01:02.825Z,20.90
2019-03-30T16:03:32.726Z,20.60
2019-03-30T16:06:02.622Z,20.40
2019-03-30T16:08:32.551Z,20.20
2019-03-30T16:11:02.341Z,20.00
2019-03-30T16:13:32.174Z,19.80
2019-03-30T16:16:02.005Z,19.70
2019-03-30T16:18:31.815Z,19.50
2019-03-30T16:21:01.727Z,19.40
2019-03-30T16:23:31.546Z,19.30
2019-03-30T16:26:01.386Z,19.10
2019-03-30T16:28:31.266Z,19.10
2019-03-30T16:31:01.305Z,19.00
2019-03-30T16:33:31.106Z,18.90
2019-03-30T16:36:02.705Z,18.80
2019-03-30T16:38:32.386Z,18.70
2019-03-30T16:41:03.220Z,18.70
2019-03-30T16:43:33.017Z,18.70
2019-03-30T16:46:02.848Z,18.60
2019-03-30T16:48:32.672Z,18.60
2019-03-30T16:51:02.538Z,18.60
2019-03-30T16:53:32.504Z,18.50
2019-03-30T16:56:02.294Z,18.50
2019-03-30T16:58:32.162Z,18.40
2019-03-30T17:01:01.981Z,18.30
2019-03-30T17:03:31.808Z,18.20
2019-03-30T17:06:01.583Z,18.00
2019-03-30T17:08:31.775Z,17.90
2019-03-30T17:11:02.449Z,17.80
2019-03-30T17:13:32.355Z,17.70
2019-03-30T17:16:02.153Z,17.60
2019-03-30T17:18:31.981Z,17.40
2019-03-30T17:21:01.918Z,17.30
2019-03-30T17:23:31.761Z,17.20
2019-03-30T17:26:01.583Z,17.10
2019-03-30T17:28:31.499Z,17.00
2019-03-30T17:31:01.263Z,16.90
2019-03-30T17:33:31.159Z,16.80
2019-03-30T17:36:01.015Z,16.70
2019-03-30T17:38:30.793Z,16.60
2019-03-30T17:41:00.677Z,16.60
2019-03-30T17:43:30.556Z,16.50
2019-03-30T17:46:00.394Z,16.40
2019-03-30T17:48:30.248Z,16.30
2019-03-30T17:51:00.072Z,16.30
2019-03-30T17:53:29.917Z,16.20
2019-03-30T17:56:01.831Z,16.10
2019-03-30T17:58:31.282Z,16.00
2019-03-30T18:01:01.304Z,15.90
2019-03-30T18:03:31.190Z,15.90
2019-03-30T18:06:00.958Z,15.80
2019-03-30T18:08:30.698Z,15.70
2019-03-30T18:11:03.897Z,15.60
2019-03-30T18:13:32.067Z,15.50
2019-03-30T18:16:01.895Z,15.40
2019-03-30T18:18:31.688Z,15.30
2019-03-30T18:21:01.580Z,15.30
2019-03-30T18:23:31.505Z,15.20
2019-03-30T18:26:01.329Z,15.10
2019-03-30T18:28:31.245Z,15.10
2019-03-30T18:31:01.050Z,14.90
2019-03-30T18:33:30.939Z,14.90
2019-03-30T18:36:04.625Z,14.80
2019-03-30T18:38:37.026Z,14.70
2019-03-30T18:41:06.989Z,14.60
2019-03-30T18:43:37.121Z,14.50
2019-03-30T18:46:06.989Z,14.40
2019-03-30T18:48:37.227Z,14.40
2019-03-30T18:51:07.030Z,14.30
2019-03-30T18:53:37.369Z,14.20
2019-03-30T18:56:07.517Z,14.10
2019-03-30T18:58:41.958Z,14.00
2019-03-30T19:01:10.301Z,13.90
2019-03-30T19:03:40.345Z,13.80
2019-03-30T19:06:10.277Z,13.70
2019-03-30T19:08:40.522Z,13.70
2019-03-30T19:11:10.461Z,13.60
2019-03-30T19:13:40.697Z,13.60
2019-03-30T19:16:10.552Z,13.50
2019-03-30T19:18:40.837Z,13.50
2019-03-30T19:21:10.680Z,13.40
2019-03-30T19:23:40.490Z,13.40
2019-03-30T19:26:10.497Z,13.40
2019-03-30T19:28:40.348Z,13.30
2019-03-30T19:31:10.281Z,13.30
2019-03-30T19:33:40.146Z,13.20
2019-03-30T19:36:10.273Z,13.20
2019-03-30T19:38:40.157Z,13.10
2019-03-30T19:41:10.072Z,13.10
2019-03-30T19:43:40.024Z,13.00
2019-03-30T19:46:09.850Z,12.90
2019-03-30T19:48:39.764Z,12.90
2019-03-30T19:51:09.700Z,12.90
2019-03-30T19:53:39.537Z,12.80
2019-03-30T19:56:09.504Z,12.70
2019-03-30T19:58:39.348Z,12.70
2019-03-30T20:01:09.465Z,12.60
2019-03-30T20:03:40.156Z,12.60
2019-03-30T20:06:10.408Z,12.60
2019-03-30T20:08:40.787Z,12.50
2019-03-30T20:11:10.824Z,12.50
2019-03-30T20:13:40.932Z,12.50
2019-03-30T20:16:12.056Z,12.40
2019-03-30T20:18:42.076Z,12.30
2019-03-30T20:21:12.060Z,12.20
2019-03-30T20:23:42.013Z,12.20
2019-03-30T20:26:12.011Z,12.10
2019-03-30T20:28:41.823Z,12.10
2019-03-30T20:31:12.126Z,12.10
2019-03-30T20:33:42.083Z,12.00
2019-03-30T20:36:12.111Z,12.00
2019-03-30T20:38:41.995Z,11.90
2019-03-30T20:41:11.895Z,11.90
2019-03-30T20:43:41.683Z,11.90
2019-03-30T20:46:11.794Z,11.90
2019-03-30T20:48:41.672Z,11.80
2019-03-30T20:51:11.491Z,11.80
2019-03-30T20:53:41.405Z,11.80
2019-03-30T20:56:11.243Z,11.80
2019-03-30T20:58:41.115Z,11.70
2019-03-30T21:01:11.563Z,11.70
2019-03-30T21:03:41.375Z,11.70
2019-03-30T21:06:11.274Z,11.70
2019-03-30T21:08:41.082Z,11.60
2019-03-30T21:11:10.810Z,11.60
2019-03-30T21:13:40.618Z,11.60
2019-03-30T21:16:10.490Z,11.50
2019-03-30T21:18:40.322Z,11.50
2019-03-30T21:21:10.386Z,11.40
2019-03-30T21:23:40.246Z,11.40
2019-03-30T21:26:10.154Z,11.40
2019-03-30T21:28:39.990Z,11.40
2019-03-30T21:31:09.857Z,11.40
2019-03-30T21:33:39.646Z,11.30
2019-03-30T21:36:09.581Z,11.30
2019-03-30T21:38:39.386Z,11.20
2019-03-30T21:41:09.238Z,11.10
2019-03-30T21:43:39.038Z,11.10
2019-03-30T21:46:08.841Z,11.10
2019-03-30T21:48:38.721Z,11.10
2019-03-30T21:51:08.519Z,11.10
2019-03-30T21:53:38.350Z,11.00
2019-03-30T21:56:08.246Z,11.00
2019-03-30T21:58:38.058Z,10.90
2019-03-30T22:01:07.847Z,11.00
2019-03-30T22:03:37.703Z,10.90
2019-03-30T22:06:07.573Z,10.80
2019-03-30T22:08:38.533Z,10.80
2019-03-30T22:11:08.478Z,10.80
2019-03-30T22:13:38.747Z,10.70
2019-03-30T22:16:08.566Z,10.70
2019-03-30T22:18:38.378Z,10.70
2019-03-30T22:21:08.201Z,10.60
2019-03-30T22:23:38.066Z,10.60
2019-03-30T22:26:07.902Z,10.60
2019-03-30T22:28:37.807Z,10.50
2019-03-30T22:31:07.615Z,10.50
2019-03-30T22:33:37.438Z,10.50
2019-03-30T22:36:07.263Z,10.40
2019-03-30T22:38:37.061Z,10.40
2019-03-30T22:41:06.960Z,10.30
2019-03-30T22:43:36.799Z,10.30
2019-03-30T22:46:07.768Z,10.20
2019-03-30T22:48:37.632Z,10.20
2019-03-30T22:51:07.508Z,10.10
2019-03-30T22:53:37.337Z,10.10
2019-03-30T22:56:07.237Z,10.10
2019-03-30T22:58:37.053Z,10.00
2019-03-30T23:01:09.816Z,10.00
2019-03-30T23:03:39.896Z,9.90
2019-03-30T23:06:09.711Z,9.90
2019-03-30T23:08:39.517Z,9.90
2019-03-30T23:11:09.312Z,9.90
2019-03-30T23:13:39.226Z,9.80
2019-03-30T23:16:09.127Z,9.90
2019-03-30T23:18:39.017Z,9.80
2019-03-30T23:21:08.914Z,9.80
2019-03-30T23:23:38.847Z,9.80
2019-03-30T23:26:08.663Z,9.80
2019-03-30T23:28:38.500Z,9.80
2019-03-30T23:31:08.369Z,9.70
2019-03-30T23:33:38.197Z,9.70
2019-03-30T23:36:08.051Z,9.70
2019-03-30T23:38:37.979Z,9.70
2019-03-30T23:41:07.771Z,9.70
2019-03-30T23:43:38.059Z,9.70
2019-03-30T23:46:07.983Z,9.70
2019-03-30T23:48:37.899Z,9.60
2019-03-30T23:51:07.769Z,9.60
2019-03-30T23:53:37.625Z,9.50
2019-03-30T23:56:22.879Z,9.50
2019-03-30T23:58:52.883Z,9.40
